sensor_id;sensor_type;location;lat;lon;timestamp;P1;durP1;ratioP1;P2;durP2;ratioP2
48975;SDS011;34791;52.752;8.346;2023-01-19T00:00:43;21.43;;;11.80;;
48975;SDS011;34791;52.752;8.346;2023-01-19T00:03:09;14.87;;;7.93;;
48975;SDS011;34791;52.752;8.346;2023-01-19T00:05:40;17.48;;;10.60;;
48975;SDS011;34791;52.752;8.346;2023-01-19T00:08:08;21.57;;;9.97;;
48975;SDS011;34791;52.752;8.346;2023-01-19T00:10:41;20.13;;;9.70;;
48975;SDS011;34791;52.752;8.346;2023-01-19T00:13:09;18.27;;;10.13;;
48975;SDS011;34791;52.752;8.346;2023-01-19T00:15:34;16.47;;;8.97;;
48975;SDS011;34791;52.752;8.346;2023-01-19T00:18:00;17.03;;;9.67;;
48975;SDS011;34791;52.752;8.346;2023-01-19T00:20:25;21.73;;;11.63;;
48975;SDS011;34791;52.752;8.346;2023-01-19T00:22:50;19.73;;;10.73;;
48975;SDS011;34791;52.752;8.346;2023-01-19T00:25:16;16.37;;;9.47;;
48975;SDS011;34791;52.752;8.346;2023-01-19T00:27:42;17.77;;;9.67;;
48975;SDS011;34791;52.752;8.346;2023-01-19T00:30:13;17.92;;;8.95;;
48975;SDS011;34791;52.752;8.346;2023-01-19T00:32:39;19.73;;;10.80;;
48975;SDS011;34791;52.752;8.346;2023-01-19T00:35:05;16.53;;;9.10;;
48975;SDS011;34791;52.752;8.346;2023-01-19T00:37:30;21.00;;;10.90;;
48975;SDS011;34791;52.752;8.346;2023-01-19T00:39:56;20.03;;;10.83;;
48975;SDS011;34791;52.752;8.346;2023-01-19T00:42:21;19.87;;;10.23;;
48975;SDS011;34791;52.752;8.346;2023-01-19T00:45:08;21.13;;;10.63;;
48975;SDS011;34791;52.752;8.346;2023-01-19T00:47:38;20.03;;;11.10;;
48975;SDS011;34791;52.752;8.346;2023-01-19T00:50:04;20.80;;;10.43;;
48975;SDS011;34791;52.752;8.346;2023-01-19T00:52:31;18.33;;;10.17;;
48975;SDS011;34791;52.752;8.346;2023-01-19T00:54:56;15.20;;;7.57;;
48975;SDS011;34791;52.752;8.346;2023-01-19T00:57:22;22.77;;;12.50;;
48975;SDS011;34791;52.752;8.346;2023-01-19T00:59:47;19.03;;;10.47;;
48975;SDS011;34791;52.752;8.346;2023-01-19T01:02:13;22.63;;;10.43;;
48975;SDS011;34791;52.752;8.346;2023-01-19T01:04:38;16.07;;;8.77;;
48975;SDS011;34791;52.752;8.346;2023-01-19T01:07:03;19.13;;;9.87;;
48975;SDS011;34791;52.752;8.346;2023-01-19T01:09:29;16.93;;;8.43;;
48975;SDS011;34791;52.752;8.346;2023-01-19T01:11:55;18.67;;;11.40;;
48975;SDS011;34791;52.752;8.346;2023-01-19T01:14:21;21.27;;;11.70;;
48975;SDS011;34791;52.752;8.346;2023-01-19T01:16:47;20.80;;;10.37;;
48975;SDS011;34791;52.752;8.346;2023-01-19T01:19:13;18.43;;;10.43;;
48975;SDS011;34791;52.752;8.346;2023-01-19T01:21:38;20.53;;;10.00;;
48975;SDS011;34791;52.752;8.346;2023-01-19T01:24:04;24.00;;;12.97;;
48975;SDS011;34791;52.752;8.346;2023-01-19T01:26:29;18.70;;;10.93;;
48975;SDS011;34791;52.752;8.346;2023-01-19T01:28:54;22.10;;;11.97;;
48975;SDS011;34791;52.752;8.346;2023-01-19T01:31:20;22.90;;;13.67;;
48975;SDS011;34791;52.752;8.346;2023-01-19T01:33:45;25.17;;;12.90;;
48975;SDS011;34791;52.752;8.346;2023-01-19T01:36:11;18.70;;;9.47;;
48975;SDS011;34791;52.752;8.346;2023-01-19T01:38:37;18.87;;;10.53;;
48975;SDS011;34791;52.752;8.346;2023-01-19T01:41:04;25.20;;;12.53;;
48975;SDS011;34791;52.752;8.346;2023-01-19T01:46:15;28.17;;;15.53;;
48975;SDS011;34791;52.752;8.346;2023-01-19T01:48:43;24.50;;;12.97;;
48975;SDS011;34791;52.752;8.346;2023-01-19T01:51:58;28.03;;;15.20;;
48975;SDS011;34791;52.752;8.346;2023-01-19T01:54:18;27.47;;;15.97;;
48975;SDS011;34791;52.752;8.346;2023-01-19T01:56:48;20.60;;;10.90;;
48975;SDS011;34791;52.752;8.346;2023-01-19T01:59:16;26.67;;;13.23;;
48975;SDS011;34791;52.752;8.346;2023-01-19T02:01:56;32.37;;;18.27;;
48975;SDS011;34791;52.752;8.346;2023-01-19T02:05:01;30.13;;;15.03;;
48975;SDS011;34791;52.752;8.346;2023-01-19T02:10:46;28.97;;;15.53;;
48975;SDS011;34791;52.752;8.346;2023-01-19T02:13:31;27.80;;;14.17;;
48975;SDS011;34791;52.752;8.346;2023-01-19T02:15:59;33.73;;;16.33;;
48975;SDS011;34791;52.752;8.346;2023-01-19T02:18:29;22.43;;;11.37;;
48975;SDS011;34791;52.752;8.346;2023-01-19T02:26:15;23.87;;;13.70;;
48975;SDS011;34791;52.752;8.346;2023-01-19T02:28:48;28.87;;;15.03;;
48975;SDS011;34791;52.752;8.346;2023-01-19T02:31:17;30.93;;;16.83;;
48975;SDS011;34791;52.752;8.346;2023-01-19T02:33:43;24.23;;;13.63;;
48975;SDS011;34791;52.752;8.346;2023-01-19T02:36:09;22.70;;;12.83;;
48975;SDS011;34791;52.752;8.346;2023-01-19T02:38:37;24.17;;;13.40;;
48975;SDS011;34791;52.752;8.346;2023-01-19T02:41:05;33.30;;;18.23;;
48975;SDS011;34791;52.752;8.346;2023-01-19T02:43:33;27.07;;;14.53;;
48975;SDS011;34791;52.752;8.346;2023-01-19T02:45:59;30.50;;;16.10;;
48975;SDS011;34791;52.752;8.346;2023-01-19T02:48:25;21.17;;;10.97;;
48975;SDS011;34791;52.752;8.346;2023-01-19T02:50:55;35.63;;;18.60;;
48975;SDS011;34791;52.752;8.346;2023-01-19T02:56:06;25.93;;;15.17;;
48975;SDS011;34791;52.752;8.346;2023-01-19T03:10:30;33.23;;;18.33;;
48975;SDS011;34791;52.752;8.346;2023-01-19T03:13:17;28.03;;;14.37;;
48975;SDS011;34791;52.752;8.346;2023-01-19T03:18:45;26.27;;;15.77;;
48975;SDS011;34791;52.752;8.346;2023-01-19T03:21:15;29.75;;;17.83;;
48975;SDS011;34791;52.752;8.346;2023-01-19T03:23:43;30.53;;;16.23;;
48975;SDS011;34791;52.752;8.346;2023-01-19T03:26:11;32.60;;;17.20;;
48975;SDS011;34791;52.752;8.346;2023-01-19T03:28:40;25.63;;;13.67;;
48975;SDS011;34791;52.752;8.346;2023-01-19T03:31:18;26.60;;;15.43;;
48975;SDS011;34791;52.752;8.346;2023-01-19T03:33:48;31.00;;;16.13;;
48975;SDS011;34791;52.752;8.346;2023-01-19T03:36:19;29.23;;;16.37;;
48975;SDS011;34791;52.752;8.346;2023-01-19T03:38:49;20.53;;;10.63;;
48975;SDS011;34791;52.752;8.346;2023-01-19T03:41:18;22.87;;;11.80;;
48975;SDS011;34791;52.752;8.346;2023-01-19T03:43:46;31.20;;;16.50;;
48975;SDS011;34791;52.752;8.346;2023-01-19T03:46:14;26.03;;;14.70;;
48975;SDS011;34791;52.752;8.346;2023-01-19T03:48:41;22.07;;;12.47;;
48975;SDS011;34791;52.752;8.346;2023-01-19T03:51:08;26.57;;;15.03;;
48975;SDS011;34791;52.752;8.346;2023-01-19T03:53:34;27.00;;;14.43;;
48975;SDS011;34791;52.752;8.346;2023-01-19T03:56:00;23.50;;;12.90;;
48975;SDS011;34791;52.752;8.346;2023-01-19T03:58:25;32.37;;;15.63;;
48975;SDS011;34791;52.752;8.346;2023-01-19T04:00:52;24.73;;;12.73;;
48975;SDS011;34791;52.752;8.346;2023-01-19T04:03:17;19.57;;;10.87;;
48975;SDS011;34791;52.752;8.346;2023-01-19T04:05:43;30.00;;;15.07;;
48975;SDS011;34791;52.752;8.346;2023-01-19T04:08:10;30.97;;;17.37;;
48975;SDS011;34791;52.752;8.346;2023-01-19T04:10:36;25.47;;;13.60;;
48975;SDS011;34791;52.752;8.346;2023-01-19T04:13:02;23.57;;;12.50;;
48975;SDS011;34791;52.752;8.346;2023-01-19T04:15:28;34.10;;;19.80;;
48975;SDS011;34791;52.752;8.346;2023-01-19T04:17:58;26.17;;;14.20;;
48975;SDS011;34791;52.752;8.346;2023-01-19T04:20:24;33.60;;;17.50;;
48975;SDS011;34791;52.752;8.346;2023-01-19T04:22:52;30.93;;;15.90;;
48975;SDS011;34791;52.752;8.346;2023-01-19T04:25:18;27.90;;;14.07;;
48975;SDS011;34791;52.752;8.346;2023-01-19T04:27:44;28.97;;;14.10;;
48975;SDS011;34791;52.752;8.346;2023-01-19T04:30:09;25.10;;;13.57;;
48975;SDS011;34791;52.752;8.346;2023-01-19T04:32:35;22.03;;;11.73;;
48975;SDS011;34791;52.752;8.346;2023-01-19T04:35:00;27.93;;;15.50;;
48975;SDS011;34791;52.752;8.346;2023-01-19T04:37:26;30.80;;;17.67;;
48975;SDS011;34791;52.752;8.346;2023-01-19T04:39:51;32.73;;;19.10;;
48975;SDS011;34791;52.752;8.346;2023-01-19T04:42:17;36.43;;;18.50;;
48975;SDS011;34791;52.752;8.346;2023-01-19T04:44:42;32.57;;;17.33;;
48975;SDS011;34791;52.752;8.346;2023-01-19T04:47:07;29.13;;;15.80;;
48975;SDS011;34791;52.752;8.346;2023-01-19T04:49:33;27.80;;;14.50;;
48975;SDS011;34791;52.752;8.346;2023-01-19T04:52:01;30.83;;;16.90;;
48975;SDS011;34791;52.752;8.346;2023-01-19T04:54:28;32.37;;;17.83;;
48975;SDS011;34791;52.752;8.346;2023-01-19T04:56:54;32.90;;;16.70;;
48975;SDS011;34791;52.752;8.346;2023-01-19T04:59:19;29.33;;;15.00;;
48975;SDS011;34791;52.752;8.346;2023-01-19T05:01:45;23.60;;;13.37;;
48975;SDS011;34791;52.752;8.346;2023-01-19T05:04:11;29.63;;;16.03;;
48975;SDS011;34791;52.752;8.346;2023-01-19T05:06:36;31.27;;;16.40;;
48975;SDS011;34791;52.752;8.346;2023-01-19T05:09:02;33.67;;;18.53;;
48975;SDS011;34791;52.752;8.346;2023-01-19T05:11:27;31.07;;;16.30;;
48975;SDS011;34791;52.752;8.346;2023-01-19T05:13:52;31.70;;;17.37;;
48975;SDS011;34791;52.752;8.346;2023-01-19T05:16:18;33.13;;;17.93;;
48975;SDS011;34791;52.752;8.346;2023-01-19T05:18:43;32.10;;;16.63;;
48975;SDS011;34791;52.752;8.346;2023-01-19T05:21:08;34.03;;;17.47;;
48975;SDS011;34791;52.752;8.346;2023-01-19T05:23:34;31.90;;;18.13;;
48975;SDS011;34791;52.752;8.346;2023-01-19T05:26:00;26.60;;;14.93;;
48975;SDS011;34791;52.752;8.346;2023-01-19T05:28:27;31.67;;;17.50;;
48975;SDS011;34791;52.752;8.346;2023-01-19T05:30:54;26.47;;;14.47;;
48975;SDS011;34791;52.752;8.346;2023-01-19T05:33:22;27.30;;;14.60;;
48975;SDS011;34791;52.752;8.346;2023-01-19T05:35:49;31.27;;;16.53;;
48975;SDS011;34791;52.752;8.346;2023-01-19T05:38:15;28.77;;;14.93;;
48975;SDS011;34791;52.752;8.346;2023-01-19T05:40:41;27.07;;;15.87;;
48975;SDS011;34791;52.752;8.346;2023-01-19T05:43:06;33.73;;;18.57;;
48975;SDS011;34791;52.752;8.346;2023-01-19T05:45:31;33.60;;;18.10;;
48975;SDS011;34791;52.752;8.346;2023-01-19T05:47:58;30.80;;;15.97;;
48975;SDS011;34791;52.752;8.346;2023-01-19T05:50:23;21.70;;;11.17;;
48975;SDS011;34791;52.752;8.346;2023-01-19T05:52:49;28.87;;;15.27;;
48975;SDS011;34791;52.752;8.346;2023-01-19T05:55:17;24.27;;;12.70;;
48975;SDS011;34791;52.752;8.346;2023-01-19T05:57:43;26.60;;;15.80;;
48975;SDS011;34791;52.752;8.346;2023-01-19T06:00:08;28.83;;;16.00;;
48975;SDS011;34791;52.752;8.346;2023-01-19T06:02:34;31.10;;;16.40;;
48975;SDS011;34791;52.752;8.346;2023-01-19T06:04:59;28.33;;;17.30;;
48975;SDS011;34791;52.752;8.346;2023-01-19T06:07:25;25.23;;;13.13;;
48975;SDS011;34791;52.752;8.346;2023-01-19T06:09:51;31.10;;;17.40;;
48975;SDS011;34791;52.752;8.346;2023-01-19T06:12:16;31.27;;;17.17;;
48975;SDS011;34791;52.752;8.346;2023-01-19T06:14:42;25.87;;;13.97;;
48975;SDS011;34791;52.752;8.346;2023-01-19T06:17:07;32.60;;;18.20;;
48975;SDS011;34791;52.752;8.346;2023-01-19T06:19:32;31.53;;;18.37;;
48975;SDS011;34791;52.752;8.346;2023-01-19T06:21:59;28.50;;;15.13;;
48975;SDS011;34791;52.752;8.346;2023-01-19T06:24:24;34.30;;;18.37;;
48975;SDS011;34791;52.752;8.346;2023-01-19T06:26:50;29.73;;;15.23;;
48975;SDS011;34791;52.752;8.346;2023-01-19T06:29:15;24.63;;;13.27;;
48975;SDS011;34791;52.752;8.346;2023-01-19T06:31:42;34.20;;;17.87;;
48975;SDS011;34791;52.752;8.346;2023-01-19T06:34:07;30.37;;;15.70;;
48975;SDS011;34791;52.752;8.346;2023-01-19T06:36:33;26.57;;;13.60;;
48975;SDS011;34791;52.752;8.346;2023-01-19T06:38:58;23.93;;;12.13;;
48975;SDS011;34791;52.752;8.346;2023-01-19T06:41:27;28.13;;;16.00;;
48975;SDS011;34791;52.752;8.346;2023-01-19T06:43:53;31.83;;;17.33;;
48975;SDS011;34791;52.752;8.346;2023-01-19T06:46:19;28.50;;;16.17;;
48975;SDS011;34791;52.752;8.346;2023-01-19T06:48:44;31.30;;;17.03;;
48975;SDS011;34791;52.752;8.346;2023-01-19T06:51:09;35.40;;;17.93;;
48975;SDS011;34791;52.752;8.346;2023-01-19T06:53:35;31.90;;;17.13;;
48975;SDS011;34791;52.752;8.346;2023-01-19T06:56:00;31.47;;;16.97;;
48975;SDS011;34791;52.752;8.346;2023-01-19T06:58:27;34.60;;;18.73;;
48975;SDS011;34791;52.752;8.346;2023-01-19T07:00:54;30.60;;;16.30;;
48975;SDS011;34791;52.752;8.346;2023-01-19T07:03:21;31.97;;;15.93;;
48975;SDS011;34791;52.752;8.346;2023-01-19T07:05:50;33.47;;;17.23;;
48975;SDS011;34791;52.752;8.346;2023-01-19T07:08:16;31.63;;;17.37;;
48975;SDS011;34791;52.752;8.346;2023-01-19T07:10:42;32.20;;;16.77;;
48975;SDS011;34791;52.752;8.346;2023-01-19T07:13:08;27.00;;;14.33;;
48975;SDS011;34791;52.752;8.346;2023-01-19T07:15:33;30.00;;;16.30;;
48975;SDS011;34791;52.752;8.346;2023-01-19T07:17:59;29.00;;;16.23;;
48975;SDS011;34791;52.752;8.346;2023-01-19T07:20:27;28.20;;;16.30;;
48975;SDS011;34791;52.752;8.346;2023-01-19T07:22:55;29.00;;;16.50;;
48975;SDS011;34791;52.752;8.346;2023-01-19T07:25:21;28.90;;;15.33;;
48975;SDS011;34791;52.752;8.346;2023-01-19T07:27:47;30.17;;;16.13;;
48975;SDS011;34791;52.752;8.346;2023-01-19T07:30:12;30.20;;;14.70;;
48975;SDS011;34791;52.752;8.346;2023-01-19T07:32:40;23.33;;;12.73;;
48975;SDS011;34791;52.752;8.346;2023-01-19T07:35:07;28.80;;;16.20;;
48975;SDS011;34791;52.752;8.346;2023-01-19T07:37:33;32.87;;;16.80;;
48975;SDS011;34791;52.752;8.346;2023-01-19T07:39:59;31.57;;;16.67;;
48975;SDS011;34791;52.752;8.346;2023-01-19T07:42:24;27.70;;;14.13;;
48975;SDS011;34791;52.752;8.346;2023-01-19T07:44:50;32.73;;;17.77;;
48975;SDS011;34791;52.752;8.346;2023-01-19T07:47:15;26.50;;;14.37;;
48975;SDS011;34791;52.752;8.346;2023-01-19T07:49:41;30.90;;;16.57;;
48975;SDS011;34791;52.752;8.346;2023-01-19T07:52:06;30.03;;;16.70;;
48975;SDS011;34791;52.752;8.346;2023-01-19T07:54:32;31.03;;;16.10;;
48975;SDS011;34791;52.752;8.346;2023-01-19T07:56:58;30.67;;;15.83;;
48975;SDS011;34791;52.752;8.346;2023-01-19T07:59:25;31.77;;;16.83;;
48975;SDS011;34791;52.752;8.346;2023-01-19T08:01:51;32.53;;;16.47;;
48975;SDS011;34791;52.752;8.346;2023-01-19T08:04:17;32.87;;;17.37;;
48975;SDS011;34791;52.752;8.346;2023-01-19T08:06:43;33.47;;;17.73;;
48975;SDS011;34791;52.752;8.346;2023-01-19T08:09:11;34.60;;;18.50;;
48975;SDS011;34791;52.752;8.346;2023-01-19T08:11:37;35.23;;;17.33;;
48975;SDS011;34791;52.752;8.346;2023-01-19T08:14:03;32.67;;;17.50;;
48975;SDS011;34791;52.752;8.346;2023-01-19T08:16:28;31.10;;;14.07;;
48975;SDS011;34791;52.752;8.346;2023-01-19T08:18:54;33.80;;;17.97;;
48975;SDS011;34791;52.752;8.346;2023-01-19T08:21:19;29.53;;;15.67;;
48975;SDS011;34791;52.752;8.346;2023-01-19T08:23:52;36.27;;;17.67;;
48975;SDS011;34791;52.752;8.346;2023-01-19T08:26:19;29.43;;;16.70;;
48975;SDS011;34791;52.752;8.346;2023-01-19T08:28:45;36.03;;;17.97;;
48975;SDS011;34791;52.752;8.346;2023-01-19T08:31:10;35.27;;;17.67;;
48975;SDS011;34791;52.752;8.346;2023-01-19T08:33:36;31.07;;;16.13;;
48975;SDS011;34791;52.752;8.346;2023-01-19T08:36:01;34.10;;;17.53;;
48975;SDS011;34791;52.752;8.346;2023-01-19T08:38:27;30.03;;;16.10;;
48975;SDS011;34791;52.752;8.346;2023-01-19T08:40:52;29.73;;;17.00;;
48975;SDS011;34791;52.752;8.346;2023-01-19T08:43:17;28.83;;;16.37;;
48975;SDS011;34791;52.752;8.346;2023-01-19T08:45:48;30.10;;;15.27;;
48975;SDS011;34791;52.752;8.346;2023-01-19T08:48:17;28.63;;;15.03;;
48975;SDS011;34791;52.752;8.346;2023-01-19T08:50:46;28.47;;;16.00;;
48975;SDS011;34791;52.752;8.346;2023-01-19T08:53:13;29.13;;;15.77;;
48975;SDS011;34791;52.752;8.346;2023-01-19T08:55:39;25.63;;;14.40;;
48975;SDS011;34791;52.752;8.346;2023-01-19T08:58:04;26.13;;;14.00;;
48975;SDS011;34791;52.752;8.346;2023-01-19T09:00:32;27.43;;;14.70;;
48975;SDS011;34791;52.752;8.346;2023-01-19T09:02:59;26.03;;;13.90;;
48975;SDS011;34791;52.752;8.346;2023-01-19T09:05:28;20.73;;;10.87;;
48975;SDS011;34791;52.752;8.346;2023-01-19T09:08:01;25.73;;;13.10;;
48975;SDS011;34791;52.752;8.346;2023-01-19T09:10:28;23.33;;;12.57;;
48975;SDS011;34791;52.752;8.346;2023-01-19T09:13:00;23.90;;;12.53;;
48975;SDS011;34791;52.752;8.346;2023-01-19T09:15:28;22.70;;;12.17;;
48975;SDS011;34791;52.752;8.346;2023-01-19T09:17:54;12.30;;;7.07;;
48975;SDS011;34791;52.752;8.346;2023-01-19T09:20:19;23.70;;;12.27;;
48975;SDS011;34791;52.752;8.346;2023-01-19T09:22:44;20.27;;;11.43;;
48975;SDS011;34791;52.752;8.346;2023-01-19T09:25:11;20.20;;;11.33;;
48975;SDS011;34791;52.752;8.346;2023-01-19T09:27:37;18.80;;;10.67;;
48975;SDS011;34791;52.752;8.346;2023-01-19T09:30:03;21.40;;;11.57;;
48975;SDS011;34791;52.752;8.346;2023-01-19T09:32:29;20.97;;;11.47;;
48975;SDS011;34791;52.752;8.346;2023-01-19T09:34:54;20.20;;;11.13;;
48975;SDS011;34791;52.752;8.346;2023-01-19T09:37:20;22.07;;;11.07;;
48975;SDS011;34791;52.752;8.346;2023-01-19T09:39:45;18.97;;;9.73;;
48975;SDS011;34791;52.752;8.346;2023-01-19T09:42:33;22.83;;;11.60;;
48975;SDS011;34791;52.752;8.346;2023-01-19T09:45:06;20.20;;;11.97;;
48975;SDS011;34791;52.752;8.346;2023-01-19T09:47:39;18.63;;;9.97;;
48975;SDS011;34791;52.752;8.346;2023-01-19T09:50:08;22.00;;;10.10;;
48975;SDS011;34791;52.752;8.346;2023-01-19T09:52:40;22.67;;;11.47;;
48975;SDS011;34791;52.752;8.346;2023-01-19T09:55:42;23.23;;;12.30;;
48975;SDS011;34791;52.752;8.346;2023-01-19T09:58:00;17.50;;;8.43;;
48975;SDS011;34791;52.752;8.346;2023-01-19T10:00:28;25.27;;;12.27;;
48975;SDS011;34791;52.752;8.346;2023-01-19T10:02:58;21.03;;;11.60;;
48975;SDS011;34791;52.752;8.346;2023-01-19T10:05:36;25.73;;;11.23;;
48975;SDS011;34791;52.752;8.346;2023-01-19T10:10:51;24.73;;;13.03;;
48975;SDS011;34791;52.752;8.346;2023-01-19T10:14:03;20.33;;;8.67;;
48975;SDS011;34791;52.752;8.346;2023-01-19T10:16:29;24.33;;;12.40;;
48975;SDS011;34791;52.752;8.346;2023-01-19T10:19:36;23.70;;;11.87;;
48975;SDS011;34791;52.752;8.346;2023-01-19T10:21:58;30.43;;;12.13;;
48975;SDS011;34791;52.752;8.346;2023-01-19T10:26:57;23.90;;;9.47;;
48975;SDS011;34791;52.752;8.346;2023-01-19T10:29:35;21.80;;;9.43;;
48975;SDS011;34791;52.752;8.346;2023-01-19T10:32:16;21.90;;;8.73;;
48975;SDS011;34791;52.752;8.346;2023-01-19T10:34:50;18.50;;;7.17;;
48975;SDS011;34791;52.752;8.346;2023-01-19T10:39:45;15.53;;;7.77;;
48975;SDS011;34791;52.752;8.346;2023-01-19T10:42:16;16.53;;;7.67;;
48975;SDS011;34791;52.752;8.346;2023-01-19T10:44:42;16.53;;;7.00;;
48975;SDS011;34791;52.752;8.346;2023-01-19T10:47:16;12.37;;;4.90;;
48975;SDS011;34791;52.752;8.346;2023-01-19T10:49:43;12.47;;;5.07;;
48975;SDS011;34791;52.752;8.346;2023-01-19T10:55:22;11.03;;;3.60;;
48975;SDS011;34791;52.752;8.346;2023-01-19T10:57:50;13.70;;;3.90;;
48975;SDS011;34791;52.752;8.346;2023-01-19T11:03:03;12.97;;;3.83;;
48975;SDS011;34791;52.752;8.346;2023-01-19T11:05:31;12.60;;;3.30;;
48975;SDS011;34791;52.752;8.346;2023-01-19T11:07:57;13.47;;;3.50;;
48975;SDS011;34791;52.752;8.346;2023-01-19T11:10:24;10.53;;;3.10;;
48975;SDS011;34791;52.752;8.346;2023-01-19T11:17:54;10.03;;;2.33;;
48975;SDS011;34791;52.752;8.346;2023-01-19T11:20:24;8.17;;;2.20;;
48975;SDS011;34791;52.752;8.346;2023-01-19T11:23:02;11.87;;;2.00;;
48975;SDS011;34791;52.752;8.346;2023-01-19T11:25:40;11.70;;;2.50;;
48975;SDS011;34791;52.752;8.346;2023-01-19T11:31:01;10.50;;;2.33;;
48975;SDS011;34791;52.752;8.346;2023-01-19T11:33:48;8.67;;;2.07;;
48975;SDS011;34791;52.752;8.346;2023-01-19T11:36:16;12.83;;;2.17;;
48975;SDS011;34791;52.752;8.346;2023-01-19T11:38:45;12.17;;;2.70;;
48975;SDS011;34791;52.752;8.346;2023-01-19T11:41:17;17.70;;;3.10;;
48975;SDS011;34791;52.752;8.346;2023-01-19T11:43:46;13.40;;;3.03;;
48975;SDS011;34791;52.752;8.346;2023-01-19T11:46:15;6.80;;;2.07;;
48975;SDS011;34791;52.752;8.346;2023-01-19T11:48:45;11.97;;;2.27;;
48975;SDS011;34791;52.752;8.346;2023-01-19T11:51:20;8.17;;;1.90;;
48975;SDS011;34791;52.752;8.346;2023-01-19T11:53:50;13.53;;;3.10;;
48975;SDS011;34791;52.752;8.346;2023-01-19T11:56:16;10.73;;;2.00;;
48975;SDS011;34791;52.752;8.346;2023-01-19T11:58:44;7.73;;;1.70;;
48975;SDS011;34791;52.752;8.346;2023-01-19T12:01:21;9.67;;;1.57;;
48975;SDS011;34791;52.752;8.346;2023-01-19T12:06:29;9.73;;;1.80;;
48975;SDS011;34791;52.752;8.346;2023-01-19T12:09:00;9.20;;;1.63;;
48975;SDS011;34791;52.752;8.346;2023-01-19T12:11:34;17.17;;;2.50;;
48975;SDS011;34791;52.752;8.346;2023-01-19T12:14:02;13.70;;;1.70;;
48975;SDS011;34791;52.752;8.346;2023-01-19T12:16:29;12.73;;;2.00;;
48975;SDS011;34791;52.752;8.346;2023-01-19T12:19:09;8.50;;;1.90;;
48975;SDS011;34791;52.752;8.346;2023-01-19T12:21:40;7.10;;;2.10;;
48975;SDS011;34791;52.752;8.346;2023-01-19T12:26:52;14.87;;;1.80;;
48975;SDS011;34791;52.752;8.346;2023-01-19T12:29:21;10.97;;;2.23;;
48975;SDS011;34791;52.752;8.346;2023-01-19T12:43:04;9.63;;;2.03;;
48975;SDS011;34791;52.752;8.346;2023-01-19T12:45:33;10.80;;;1.77;;
48975;SDS011;34791;52.752;8.346;2023-01-19T12:50:30;12.17;;;1.43;;
48975;SDS011;34791;52.752;8.346;2023-01-19T12:55:27;9.10;;;1.90;;
48975;SDS011;34791;52.752;8.346;2023-01-19T13:00:47;13.70;;;2.00;;
48975;SDS011;34791;52.752;8.346;2023-01-19T13:13:33;10.63;;;1.90;;
48975;SDS011;34791;52.752;8.346;2023-01-19T13:21:13;6.70;;;1.63;;
48975;SDS011;34791;52.752;8.346;2023-01-19T13:23:50;10.50;;;1.30;;
48975;SDS011;34791;52.752;8.346;2023-01-19T13:26:22;8.77;;;1.57;;
48975;SDS011;34791;52.752;8.346;2023-01-19T13:28:52;12.97;;;1.10;;
48975;SDS011;34791;52.752;8.346;2023-01-19T13:31:21;10.57;;;1.73;;
48975;SDS011;34791;52.752;8.346;2023-01-19T13:33:49;10.30;;;1.83;;
48975;SDS011;34791;52.752;8.346;2023-01-19T13:38:55;14.43;;;2.40;;
48975;SDS011;34791;52.752;8.346;2023-01-19T13:41:24;11.53;;;2.57;;
48975;SDS011;34791;52.752;8.346;2023-01-19T13:43:56;9.03;;;1.20;;
48975;SDS011;34791;52.752;8.346;2023-01-19T13:46:22;11.27;;;1.55;;
48975;SDS011;34791;52.752;8.346;2023-01-19T13:48:54;9.20;;;2.00;;
48975;SDS011;34791;52.752;8.346;2023-01-19T13:51:28;14.20;;;1.60;;
48975;SDS011;34791;52.752;8.346;2023-01-19T13:53:57;8.27;;;1.90;;
48975;SDS011;34791;52.752;8.346;2023-01-19T13:56:26;11.55;;;1.77;;
48975;SDS011;34791;52.752;8.346;2023-01-19T13:59:03;12.03;;;2.00;;
48975;SDS011;34791;52.752;8.346;2023-01-19T14:01:33;10.80;;;1.67;;
48975;SDS011;34791;52.752;8.346;2023-01-19T14:03:59;10.33;;;1.70;;
48975;SDS011;34791;52.752;8.346;2023-01-19T14:09:35;5.80;;;1.30;;
48975;SDS011;34791;52.752;8.346;2023-01-19T14:14:39;9.13;;;1.60;;
48975;SDS011;34791;52.752;8.346;2023-01-19T14:17:13;9.63;;;1.60;;
48975;SDS011;34791;52.752;8.346;2023-01-19T14:19:52;7.23;;;1.47;;
48975;SDS011;34791;52.752;8.346;2023-01-19T14:22:19;9.20;;;1.53;;
48975;SDS011;34791;52.752;8.346;2023-01-19T14:24:44;8.33;;;1.60;;
48975;SDS011;34791;52.752;8.346;2023-01-19T14:27:21;6.30;;;1.20;;
48975;SDS011;34791;52.752;8.346;2023-01-19T14:29:46;6.50;;;1.30;;
48975;SDS011;34791;52.752;8.346;2023-01-19T14:32:18;6.07;;;1.30;;
48975;SDS011;34791;52.752;8.346;2023-01-19T14:34:50;6.77;;;1.40;;
48975;SDS011;34791;52.752;8.346;2023-01-19T14:37:22;11.27;;;1.80;;
48975;SDS011;34791;52.752;8.346;2023-01-19T14:39:48;5.67;;;1.20;;
48975;SDS011;34791;52.752;8.346;2023-01-19T14:42:19;11.73;;;1.53;;
48975;SDS011;34791;52.752;8.346;2023-01-19T14:44:49;15.20;;;2.13;;
48975;SDS011;34791;52.752;8.346;2023-01-19T14:47:38;8.73;;;1.70;;
48975;SDS011;34791;52.752;8.346;2023-01-19T14:50:05;8.97;;;2.03;;
48975;SDS011;34791;52.752;8.346;2023-01-19T14:52:33;5.43;;;1.50;;
48975;SDS011;34791;52.752;8.346;2023-01-19T14:55:01;9.40;;;1.97;;
48975;SDS011;34791;52.752;8.346;2023-01-19T14:57:30;5.17;;;1.23;;
48975;SDS011;34791;52.752;8.346;2023-01-19T14:59:58;4.33;;;1.00;;
48975;SDS011;34791;52.752;8.346;2023-01-19T15:02:24;7.27;;;1.80;;
48975;SDS011;34791;52.752;8.346;2023-01-19T15:04:49;9.07;;;1.30;;
48975;SDS011;34791;52.752;8.346;2023-01-19T15:07:19;13.90;;;1.40;;
48975;SDS011;34791;52.752;8.346;2023-01-19T15:09:46;9.07;;;1.67;;
48975;SDS011;34791;52.752;8.346;2023-01-19T15:12:12;10.30;;;2.03;;
48975;SDS011;34791;52.752;8.346;2023-01-19T15:14:40;11.17;;;1.60;;
48975;SDS011;34791;52.752;8.346;2023-01-19T15:17:08;9.73;;;2.30;;
48975;SDS011;34791;52.752;8.346;2023-01-19T15:19:34;6.60;;;1.23;;
48975;SDS011;34791;52.752;8.346;2023-01-19T15:21:59;8.40;;;1.43;;
48975;SDS011;34791;52.752;8.346;2023-01-19T15:24:25;6.20;;;1.60;;
48975;SDS011;34791;52.752;8.346;2023-01-19T15:26:50;8.97;;;1.57;;
48975;SDS011;34791;52.752;8.346;2023-01-19T15:29:22;8.97;;;2.03;;
48975;SDS011;34791;52.752;8.346;2023-01-19T15:31:49;8.23;;;1.37;;
48975;SDS011;34791;52.752;8.346;2023-01-19T15:34:15;11.53;;;1.77;;
48975;SDS011;34791;52.752;8.346;2023-01-19T15:36:40;14.43;;;2.20;;
48975;SDS011;34791;52.752;8.346;2023-01-19T15:39:06;8.80;;;2.17;;
48975;SDS011;34791;52.752;8.346;2023-01-19T15:41:32;6.20;;;2.27;;
48975;SDS011;34791;52.752;8.346;2023-01-19T15:43:57;12.77;;;2.67;;
48975;SDS011;34791;52.752;8.346;2023-01-19T15:46:23;11.60;;;2.70;;
48975;SDS011;34791;52.752;8.346;2023-01-19T15:48:49;8.90;;;2.13;;
48975;SDS011;34791;52.752;8.346;2023-01-19T15:51:17;9.00;;;1.70;;
48975;SDS011;34791;52.752;8.346;2023-01-19T15:53:42;11.20;;;2.30;;
48975;SDS011;34791;52.752;8.346;2023-01-19T15:58:45;8.50;;;1.83;;
48975;SDS011;34791;52.752;8.346;2023-01-19T16:01:11;11.17;;;2.20;;
48975;SDS011;34791;52.752;8.346;2023-01-19T16:03:38;9.33;;;2.13;;
48975;SDS011;34791;52.752;8.346;2023-01-19T16:06:04;8.10;;;1.83;;
48975;SDS011;34791;52.752;8.346;2023-01-19T16:08:29;8.10;;;1.47;;
48975;SDS011;34791;52.752;8.346;2023-01-19T16:10:54;7.10;;;1.67;;
48975;SDS011;34791;52.752;8.346;2023-01-19T16:13:20;9.00;;;1.80;;
48975;SDS011;34791;52.752;8.346;2023-01-19T16:15:45;6.67;;;1.70;;